Campanya meteocatpedra

Dades EMA Puig Sesolles (1.668 m)

?
?
Resum diari
Dades diàries de l'estació meteorològica
Temperatura mitjana 3.7 °C
Temperatura màxima 7.3 °C 13:24 TU
Temperatura mínima 1.2 °C 6:26 TU
Humitat relativa mitjana 65%
Precipitació acumulada 0.0 mm
Gruix de neu màxim 0 cm
Ratxa màxima del vent (10 m) 49.0 km/h - 261º 23:54 TU
Irradiació solar global 9.8 MJ/m2

El tram horari està expressat en Temps Universal (TU). Cal sumar una hora en horari d'hivern i dues en horari d'estiu per passar a l'hora oficial.

Puig Sesolles (1.668 m)

Metadades estació meteorol´gica
Municipi Fogars de Montclús
Comarca Vallès Oriental
Altitud 1668 m
Data alta 22.09.2010
Estat actual Operativa
Dades de període
Període
TU
TM
°C
TX
°C
TN
°C
HRM
%
PPT
mm
GN
cm
VVM (10 m)
km/h
DVM (10 m)
graus
VVX (10 m)
km/h
RS
W/m2
00:00 - 00:30 2.4 2.5 2.3 59 0.0 0 22.7 100 27.4 0
00:30 - 01:00 2.5 2.8 1.9 58 0.0 0 23.0 115 27.7 0
01:00 - 01:30 2.1 2.2 2.1 62 0.0 0 19.8 124 21.2 0
01:30 - 02:00 2.0 2.1 1.9 67 0.0 0 19.8 132 21.2 0
02:00 - 02:30 1.7 1.9 1.6 75 0.0 0 20.2 136 22.3 0
02:30 - 03:00 1.7 1.9 1.6 83 0.0 0 23.0 145 25.6 0
03:00 - 03:30 1.5 1.8 1.2 94 0.0 0 21.2 159 24.5 0
03:30 - 04:00 1.5 1.7 1.3 90 0.0 0 19.4 163 23.8 0
04:00 - 04:30 1.6 1.8 1.4 81 0.0 0 19.8 162 23.0 0
04:30 - 05:00 1.7 1.8 1.5 75 0.0 0 18.4 161 21.2 0
05:00 - 05:30 1.7 1.8 1.5 75 0.0 0 19.4 165 21.6 0
05:30 - 06:00 1.4 1.5 1.2 81 0.0 0 23.4 171 28.1 0
06:00 - 06:30 1.3 1.4 1.2 76 0.0 0 22.7 173 27.4 0
06:30 - 07:00 1.5 1.7 1.3 72 0.0 0 20.5 170 25.9 0
07:00 - 07:30 1.8 2.1 1.6 64 0.0 0 22.3 165 27.7 20
07:30 - 08:00 2.4 2.7 2.1 60 0.0 0 23.4 168 27.4 68
08:00 - 08:30 3.0 3.3 2.7 56 0.0 0 22.7 172 26.6 170
08:30 - 09:00 3.6 4.1 3.2 55 0.0 0 20.9 173 27.0 271
09:00 - 09:30 4.3 4.7 3.7 56 0.0 0 16.6 170 24.5 330
09:30 - 10:00 4.6 5.6 4.1 59 0.0 0 11.2 181 17.6 377
10:00 - 10:30 5.1 5.6 4.8 60 0.0 0 12.6 194 19.8 468
10:30 - 11:00 5.1 5.8 4.6 63 0.0 0 15.5 201 24.8 483
11:00 - 11:30 5.2 5.8 4.7 65 0.0 0 17.6 203 26.6 468
11:30 - 12:00 5.3 6.3 4.8 68 0.0 0 18.0 215 26.3 449
12:00 - 12:30 5.8 6.5 5.3 70 0.0 0 17.3 226 24.8 430
12:30 - 13:00 6.1 6.7 5.5 75 0.0 0 18.4 230 28.1 442
13:00 - 13:30 6.3 7.3 5.1 70 0.0 0 14.4 235 21.6 417
13:30 - 14:00 6.3 6.9 5.7 76 0.0 0 16.2 236 25.6 363
14:00 - 14:30 6.1 6.9 5.3 82 0.0 0 15.8 237 24.1 292
14:30 - 15:00 5.5 6.0 5.0 89 0.0 0 15.5 235 21.2 204
15:00 - 15:30 5.8 6.5 5.0 74 0.0 0 21.2 229 28.8 138
15:30 - 16:00 5.7 6.2 5.1 61 0.0 0 24.1 231 29.5 62
16:00 - 16:30 5.0 5.7 4.3 60 0.0 0 26.3 234 33.8 9
16:30 - 17:00 4.2 4.4 4.0 62 0.0 0 26.6 234 31.3 0
17:00 - 17:30 4.2 4.3 4.0 65 0.0 0 29.5 234 33.8 0
17:30 - 18:00 4.2 4.4 4.1 69 0.0 0 31.7 235 35.6 0
18:00 - 18:30 4.0 4.1 3.9 69 0.0 0 30.2 236 35.3 0
18:30 - 19:00 3.9 4.0 3.6 68 0.0 0 30.6 241 33.8 0
19:00 - 19:30 3.6 3.7 3.5 63 0.0 0 29.2 242 32.8 0
19:30 - 20:00 3.6 3.7 3.4 61 0.0 0 28.8 239 31.7 0
20:00 - 20:30 3.9 4.1 3.4 57 0.0 0 33.1 235 37.8 0
20:30 - 21:00 4.1 4.5 3.4 56 0.0 0 31.7 236 40.3 0
21:00 - 21:30 3.0 3.4 2.8 70 0.0 0 28.4 249 32.4 0
21:30 - 22:00 3.4 3.7 3.0 42 0.0 0 31.3 256 34.6 0
22:00 - 22:30 3.8 4.5 3.6 38 0.0 0 31.7 258 35.6 0
22:30 - 23:00 4.6 4.9 4.3 36 0.0 0 32.8 259 38.5 0
23:00 - 23:30 4.8 4.9 4.6 34 0.0 0 38.9 260 46.4 0
23:30 - 00:00 5.1 5.3 4.8 30 0.0 0 44.3 263 49.0 0

Les dades en taronja només han passat un control de qualitat automàtic. Resta pendent la seva validació definitiva.